Time;durP1;ratioP1;P1;durP2;ratioP2;P2;SDS_P1;SDS_P2;PMS_P1;PMS_P2;Temp;Humidity;BMP_temperature;BMP_pressure;BME280_temperature;BME280_humidity;BME280_pressure;Samples;Min_cycle;Max_cycle;Signal;HPM_P1;HPM_P2
2024/04/11 00:00:55;;;;;;;8.15;4.55;;;384.80;2329.60;;;;;;5418809;26;19996;-75
2024/04/11 00:03:21;;;;;;;11.60;4.90;;;384.80;2329.60;;;;;;5418722;26;20068;-73
2024/04/11 00:05:47;;;;;;;10.73;4.25;;;384.60;2329.60;;;;;;5418720;26;20003;-75
2024/04/11 00:08:12;;;;;;;8.43;4.70;;;384.50;2329.60;;;;;;5418132;26;20018;-75
2024/04/11 00:10:39;;;;;;;7.28;4.35;;;384.50;2329.60;;;;;;5411055;26;20444;-75
2024/04/11 00:13:04;;;;;;;11.55;3.90;;;384.50;2329.60;;;;;;5412257;26;19999;-74
2024/04/11 00:15:30;;;;;;;5.20;3.63;;;384.40;2329.60;;;;;;5418778;26;20000;-76
2024/04/11 00:17:56;;;;;;;10.57;4.05;;;384.40;2329.60;;;;;;5418646;26;20030;-74
2024/04/11 00:20:22;;;;;;;11.48;4.22;;;384.40;2329.60;;;;;;5419000;26;20004;-74
2024/04/11 00:22:48;;;;;;;11.65;4.43;;;384.40;2329.60;;;;;;5418178;26;19999;-76
2024/04/11 00:25:14;;;;;;;6.15;4.18;;;384.40;2329.60;;;;;;5418281;26;20018;-74
2024/04/11 00:27:40;;;;;;;10.98;4.35;;;384.40;2329.60;;;;;;5418946;26;20051;-76
2024/04/11 00:30:07;;;;;;;7.15;4.68;;;384.50;2329.60;;;;;;5418717;26;19996;-75
2024/04/11 00:32:32;;;;;;;10.35;4.90;;;384.40;2329.60;;;;;;5418082;26;20428;-75
2024/04/11 00:35:01;;;;;;;13.73;5.15;;;384.40;2329.60;;;;;;5418505;26;19996;-74
2024/04/11 00:37:31;;;;;;;6.90;4.60;;;384.30;2329.60;;;;;;5417475;26;20003;-75
2024/04/11 00:39:57;;;;;;;9.70;4.60;;;384.10;2329.60;;;;;;5418209;26;20010;-75
2024/04/11 00:42:23;;;;;;;8.05;3.90;;;384.10;2329.60;;;;;;5418416;26;20074;-74
2024/04/11 00:44:49;;;;;;;8.43;3.92;;;384.00;2329.60;;;;;;5418206;26;20003;-74
2024/04/11 00:47:15;;;;;;;7.45;4.75;;;384.00;2329.60;;;;;;5417900;26;20387;-75
2024/04/11 00:49:44;;;;;;;7.63;4.07;;;384.00;2329.60;;;;;;5418455;26;19996;-75
2024/04/11 00:52:10;;;;;;;7.40;4.18;;;384.00;2329.60;;;;;;5416782;26;20007;-76
2024/04/11 00:54:36;;;;;;;10.10;4.57;;;384.00;2329.60;;;;;;5417469;26;20015;-73
2024/04/11 00:57:07;;;;;;;7.90;3.83;;;384.00;2329.60;;;;;;5418036;26;19995;-74
2024/04/11 00:59:35;;;;;;;11.23;4.93;;;384.00;2329.60;;;;;;5410747;26;20004;-75
2024/04/11 01:02:04;;;;;;;5.55;3.63;;;359.30;2329.60;;;;;;5416057;26;19992;-74
2024/04/11 01:04:33;;;;;;;8.10;4.88;;;384.00;2329.60;;;;;;5416181;26;20334;-75
2024/04/11 01:07:11;;;;;;;9.05;4.70;;;384.00;2329.60;;;;;;5416223;26;20072;-75
2024/04/11 01:09:45;;;;;;;9.02;4.47;;;384.00;2329.60;;;;;;5417642;26;20073;-74
2024/04/11 01:12:12;;;;;;;6.78;4.00;;;359.30;2329.60;;;;;;5418095;26;19995;-74
2024/04/11 01:14:43;;;;;;;8.25;4.32;;;384.00;2329.60;;;;;;5417798;26;20003;-75
2024/04/11 01:17:13;;;;;;;8.15;4.15;;;359.30;2329.60;;;;;;5417141;26;19995;-75
2024/04/11 01:19:41;;;;;;;9.13;4.40;;;359.20;2329.60;;;;;;5417794;26;20007;-74
2024/04/11 01:22:09;;;;;;;10.05;4.72;;;359.20;2329.60;;;;;;5417842;26;20529;-74
2024/04/11 01:24:35;;;;;;;5.93;3.75;;;359.30;2329.60;;;;;;5417329;26;20014;-75
2024/04/11 01:27:04;;;;;;;6.95;4.30;;;359.20;2329.60;;;;;;5417569;26;20094;-73
2024/04/11 01:29:31;;;;;;;9.57;4.57;;;359.20;2329.60;;;;;;5417340;26;20324;-75
2024/04/11 01:31:57;;;;;;;7.25;4.28;;;359.30;2329.60;;;;;;5417724;26;20076;-75
2024/04/11 01:34:23;;;;;;;8.18;4.78;;;359.30;2329.60;;;;;;5409627;26;19996;-75
2024/04/11 01:36:49;;;;;;;7.38;4.15;;;359.30;2329.60;;;;;;5403855;26;20000;-76
2024/04/11 01:39:15;;;;;;;6.45;4.20;;;359.20;2329.60;;;;;;5417235;26;20011;-76
2024/04/11 01:41:41;;;;;;;6.40;4.13;;;359.20;2329.60;;;;;;5417382;26;19996;-74
2024/04/11 01:44:07;;;;;;;11.20;4.95;;;359.10;2329.60;;;;;;5417483;26;20003;-75
2024/04/11 01:46:33;;;;;;;8.73;4.13;;;359.10;2329.60;;;;;;5416983;26;20015;-75
2024/04/11 01:49:02;;;;;;;7.40;4.57;;;359.10;2329.60;;;;;;5416954;26;19995;-74
2024/04/11 01:51:27;;;;;;;6.35;3.65;;;359.10;2329.60;;;;;;5417450;26;20004;-74
2024/04/11 01:53:54;;;;;;;14.02;4.85;;;359.10;2329.60;;;;;;5416933;26;20019;-74
2024/04/11 01:56:19;;;;;;;6.50;4.10;;;359.10;2329.60;;;;;;5417360;26;20014;-75
2024/04/11 01:58:45;;;;;;;6.68;4.38;;;359.10;2329.60;;;;;;5417121;26;20000;-75
2024/04/11 02:01:12;;;;;;;9.65;4.50;;;359.10;2329.60;;;;;;5406885;26;20076;-75
2024/04/11 02:03:43;;;;;;;10.60;4.30;;;359.00;2329.60;;;;;;5417167;26;20007;-74
2024/04/11 02:06:11;;;;;;;6.35;3.80;;;359.10;2329.60;;;;;;5416664;26;20513;-74
2024/04/11 02:08:38;;;;;;;11.05;5.50;;;359.00;2329.60;;;;;;5416813;26;20000;-74
2024/04/11 02:11:06;;;;;;;12.10;4.70;;;358.90;2329.60;;;;;;5417112;26;20010;-75
2024/04/11 02:13:32;;;;;;;10.98;4.80;;;358.90;2329.60;;;;;;5416988;26;20426;-75
2024/04/11 02:15:59;;;;;;;11.18;3.92;;;359.00;2329.60;;;;;;5416502;26;20455;-74
2024/04/11 02:18:27;;;;;;;7.95;4.22;;;358.90;2329.60;;;;;;5416783;26;20015;-75
2024/04/11 02:20:53;;;;;;;7.40;4.28;;;358.90;2329.60;;;;;;5416620;26;20335;-74
2024/04/11 02:23:19;;;;;;;7.93;4.53;;;359.00;2329.60;;;;;;5416651;26;20032;-74
2024/04/11 02:25:46;;;;;;;7.45;4.78;;;359.00;2329.60;;;;;;5416485;26;20084;-75
2024/04/11 02:28:13;;;;;;;11.43;4.90;;;358.90;2329.60;;;;;;5401782;26;20074;-74
2024/04/11 02:30:39;;;;;;;8.73;4.53;;;358.90;2329.60;;;;;;5411474;26;20482;-75
2024/04/11 02:33:05;;;;;;;9.18;4.47;;;359.00;2329.60;;;;;;5420008;26;19999;-74
2024/04/11 02:35:32;;;;;;;7.40;4.22;;;359.00;2329.60;;;;;;5420144;26;20011;-74
2024/04/11 02:37:58;;;;;;;9.23;4.82;;;359.00;2329.60;;;;;;5420289;26;20032;-74
2024/04/11 02:40:25;;;;;;;8.30;5.18;;;359.00;2329.60;;;;;;5419212;26;20064;-74
2024/04/11 02:42:51;;;;;;;11.23;4.35;;;359.00;2329.60;;;;;;5420031;26;20454;-75
2024/04/11 02:45:19;;;;;;;7.57;5.10;;;358.90;2329.60;;;;;;5419769;26;19995;-75
2024/04/11 02:47:46;;;;;;;8.52;4.78;;;358.90;2329.60;;;;;;5420240;26;20393;-75
2024/04/11 02:50:15;;;;;;;7.28;4.22;;;359.00;2329.60;;;;;;5418908;26;20022;-75
2024/04/11 02:52:43;;;;;;;7.00;4.05;;;359.00;2329.60;;;;;;5420090;26;20007;-74
2024/04/11 02:55:10;;;;;;;9.07;4.25;;;358.90;2329.60;;;;;;5419508;26;20015;-75
2024/04/11 02:57:37;;;;;;;10.80;4.35;;;358.80;2329.60;;;;;;5419917;26;20078;-75
2024/04/11 03:00:04;;;;;;;6.85;4.40;;;358.90;2329.60;;;;;;5419721;26;19995;-76
2024/04/11 03:02:33;;;;;;;7.10;4.53;;;359.00;2329.60;;;;;;5419809;26;20076;-74
2024/04/11 03:05:01;;;;;;;7.95;4.80;;;358.90;2329.60;;;;;;5417139;26;20335;-75
2024/04/11 03:07:27;;;;;;;8.75;4.88;;;358.80;2329.60;;;;;;5419949;26;20514;-74
2024/04/11 03:09:54;;;;;;;14.90;4.72;;;358.80;2329.60;;;;;;5419272;26;19995;-75
2024/04/11 03:12:21;;;;;;;7.65;4.68;;;358.90;2329.60;;;;;;5418072;26;20067;-74
2024/04/11 03:14:47;;;;;;;6.32;4.05;;;358.70;2329.60;;;;;;5417520;26;20008;-74
2024/04/11 03:17:13;;;;;;;11.40;5.35;;;358.80;2329.60;;;;;;5419808;26;20011;-75
2024/04/11 03:19:40;;;;;;;5.95;4.13;;;358.80;2329.60;;;;;;5419118;26;20006;-74
2024/04/11 03:22:06;;;;;;;10.05;4.47;;;358.80;2329.60;;;;;;5419509;26;20019;-75
2024/04/11 03:24:32;;;;;;;7.40;4.35;;;358.80;2329.60;;;;;;5418968;26;19995;-75
2024/04/11 03:27:00;;;;;;;6.78;4.28;;;358.70;2329.60;;;;;;5419463;26;20459;-74
2024/04/11 03:29:27;;;;;;;8.50;4.30;;;358.70;2329.60;;;;;;5419546;26;19995;-76
2024/04/11 03:31:54;;;;;;;9.68;4.82;;;358.70;2329.60;;;;;;5419567;26;20482;-75
2024/04/11 03:34:21;;;;;;;9.00;4.43;;;358.80;2329.60;;;;;;5417551;26;20420;-76
2024/04/11 03:36:49;;;;;;;9.15;4.85;;;358.80;2329.60;;;;;;5419396;26;20451;-74
2024/04/11 03:39:15;;;;;;;11.43;5.15;;;358.80;2329.60;;;;;;5418751;26;19995;-74
2024/04/11 03:41:44;;;;;;;6.72;4.72;;;358.80;2329.60;;;;;;5419393;26;20026;-74
2024/04/11 03:44:11;;;;;;;7.85;4.85;;;358.70;2329.60;;;;;;5419351;26;19991;-74
2024/04/11 03:46:37;;;;;;;9.70;4.85;;;358.80;2329.60;;;;;;5419159;26;20421;-75
2024/04/11 03:49:04;;;;;;;7.28;4.72;;;358.80;2329.60;;;;;;5419295;26;19996;-75
2024/04/11 03:51:37;;;;;;;8.25;4.32;;;358.70;2329.60;;;;;;5419119;26;20005;-75
2024/04/11 03:54:03;;;;;;;11.10;4.47;;;358.70;2329.60;;;;;;5418966;26;20459;-75
2024/04/11 03:56:29;;;;;;;7.25;4.60;;;358.60;2329.60;;;;;;5416979;26;20007;-75
2024/04/11 03:58:56;;;;;;;9.77;3.90;;;358.60;2329.60;;;;;;5419156;26;19991;-74
2024/04/11 04:01:24;;;;;;;9.43;5.18;;;358.50;2329.60;;;;;;5419130;26;20439;-75
2024/04/11 04:03:54;;;;;;;8.27;4.22;;;358.60;2329.60;;;;;;5417407;26;19995;-75
2024/04/11 04:06:21;;;;;;;7.82;5.03;;;358.70;2329.60;;;;;;5418425;26;19996;-74
2024/04/11 04:08:48;;;;;;;12.88;5.43;;;358.70;2329.60;;;;;;5417114;26;20123;-74
2024/04/11 04:11:15;;;;;;;12.18;4.78;;;358.80;2329.60;;;;;;5395028;26;20415;-74
2024/04/11 04:13:42;;;;;;;11.27;4.65;;;358.70;2329.60;;;;;;5418927;26;19996;-74
2024/04/11 04:16:14;;;;;;;7.22;4.95;;;358.60;2329.60;;;;;;5418628;26;20010;-74
2024/04/11 04:18:54;;;;;;;5.75;4.53;;;358.60;2329.60;;;;;;5418600;26;19995;-74
2024/04/11 04:21:20;;;;;;;7.45;4.93;;;358.50;2329.60;;;;;;5416671;26;20030;-74
2024/04/11 04:23:54;;;;;;;8.20;4.55;;;358.60;2329.60;;;;;;5418714;26;20466;-73
2024/04/11 04:26:21;;;;;;;10.88;4.28;;;358.60;2329.60;;;;;;5418080;26;20010;-74
2024/04/11 04:28:48;;;;;;;13.27;4.38;;;358.60;2329.60;;;;;;5418731;26;20004;-75
2024/04/11 04:31:20;;;;;;;8.50;5.07;;;358.50;2329.60;;;;;;5418384;26;20461;-74
2024/04/11 04:34:09;;;;;;;7.40;5.00;;;358.50;2329.60;;;;;;5418408;26;20061;-74
2024/04/11 04:36:41;;;;;;;11.13;5.07;;;358.60;2329.60;;;;;;5418410;26;20454;-74
2024/04/11 04:39:07;;;;;;;7.55;4.45;;;358.50;2329.60;;;;;;5418279;26;19991;-73
2024/04/11 04:41:37;;;;;;;9.10;5.47;;;358.40;2329.60;;;;;;5417507;26;20075;-74
2024/04/11 04:44:03;;;;;;;11.05;4.90;;;358.40;2329.60;;;;;;5399901;26;20007;-74
2024/04/11 04:46:32;;;;;;;15.32;5.30;;;358.40;2329.60;;;;;;5392933;26;20007;-74
2024/04/11 04:49:02;;;;;;;8.85;4.75;;;358.50;2329.60;;;;;;5391645;26;20008;-74
2024/04/11 04:51:28;;;;;;;9.25;5.38;;;358.50;2329.60;;;;;;5400355;26;20021;-74
2024/04/11 04:53:57;;;;;;;7.63;4.53;;;358.50;2329.60;;;;;;5394909;26;20015;-75
2024/04/11 04:56:22;;;;;;;10.73;4.93;;;358.60;2329.60;;;;;;5391361;26;20458;-74
2024/04/11 04:58:50;;;;;;;7.30;5.15;;;358.50;2329.60;;;;;;5404522;26;19996;-74
2024/04/11 05:01:17;;;;;;;15.23;5.80;;;358.50;2329.60;;;;;;5412716;26;20336;-74
2024/04/11 05:03:45;;;;;;;12.18;5.25;;;358.50;2329.60;;;;;;5400681;26;19996;-75
2024/04/11 05:06:14;;;;;;;6.40;4.53;;;358.50;2329.60;;;;;;5396812;26;20080;-75
2024/04/11 05:08:46;;;;;;;8.80;5.07;;;358.50;2329.60;;;;;;5405476;26;20010;-74
2024/04/11 05:11:13;;;;;;;8.57;4.93;;;358.50;2329.60;;;;;;5390422;26;20000;-75
2024/04/11 05:13:40;;;;;;;10.13;5.68;;;358.60;2329.60;;;;;;5404488;26;20019;-75
2024/04/11 05:16:07;;;;;;;7.45;4.50;;;358.60;2329.60;;;;;;5407878;26;20072;-74
2024/04/11 05:18:37;;;;;;;10.48;4.85;;;358.60;2329.60;;;;;;5402270;26;20008;-75
2024/04/11 05:21:09;;;;;;;8.02;5.38;;;358.60;2329.60;;;;;;5400824;26;20004;-74
2024/04/11 05:23:38;;;;;;;8.15;5.03;;;358.60;2329.60;;;;;;5400328;26;20018;-75
2024/04/11 05:26:09;;;;;;;13.95;6.10;;;358.60;2329.60;;;;;;5405586;26;20007;-76
2024/04/11 05:28:42;;;;;;;11.18;5.90;;;358.70;2329.60;;;;;;5400119;26;20007;-74
2024/04/11 05:31:09;;;;;;;13.73;5.68;;;358.70;2329.60;;;;;;5395792;26;20019;-75
2024/04/11 05:33:36;;;;;;;13.23;5.93;;;358.80;2329.60;;;;;;5396679;26;20003;-76
2024/04/11 05:36:06;;;;;;;9.93;5.55;;;358.90;2329.60;;;;;;5411354;26;20345;-75
2024/04/11 05:38:37;;;;;;;10.07;5.70;;;359.00;2329.60;;;;;;5403961;26;20003;-74
2024/04/11 05:41:09;;;;;;;10.43;5.93;;;359.00;2329.60;;;;;;5384318;26;21345;-74
2024/04/11 05:43:35;;;;;;;12.95;8.05;;;359.20;2329.60;;;;;;5398211;26;19996;-75
2024/04/11 05:46:02;;;;;;;10.98;5.75;;;359.10;2329.60;;;;;;5389831;26;20003;-74
2024/04/11 05:48:28;;;;;;;10.30;6.03;;;359.20;2329.60;;;;;;5387093;26;20004;-74
2024/04/11 05:50:55;;;;;;;8.43;5.38;;;359.20;2329.60;;;;;;5400675;26;20003;-75
2024/04/11 05:53:21;;;;;;;13.70;6.80;;;359.20;2329.60;;;;;;5399963;26;20015;-73
2024/04/11 05:55:47;;;;;;;9.68;6.15;;;359.20;2329.60;;;;;;5405668;26;19992;-74
2024/04/11 05:58:13;;;;;;;12.27;7.43;;;384.00;2329.60;;;;;;5416767;26;20074;-74
2024/04/11 06:00:39;;;;;;;9.63;6.93;;;384.10;2329.60;;;;;;5417085;26;20461;-75
2024/04/11 06:03:14;;;;;;;12.32;6.95;;;384.30;2329.60;;;;;;5383024;26;19996;-75
2024/04/11 06:05:40;;;;;;;11.87;6.77;;;384.30;2329.60;;;;;;5383254;26;20004;-74
2024/04/11 06:08:08;;;;;;;22.40;6.80;;;384.40;2329.60;;;;;;5409877;26;20456;-74
2024/04/11 06:10:34;;;;;;;10.68;7.05;;;384.60;2329.60;;;;;;5404401;26;20405;-74
2024/04/11 06:13:01;;;;;;;12.80;6.90;;;384.60;2329.60;;;;;;5419932;26;20072;-74
2024/04/11 06:15:28;;;;;;;14.98;7.30;;;384.70;2329.60;;;;;;5420226;26;20032;-73
2024/04/11 06:17:53;;;;;;;12.65;7.25;;;384.70;2329.60;;;;;;5420194;26;20036;-75
2024/04/11 06:20:24;;;;;;;14.45;7.53;;;384.90;2329.60;;;;;;5420492;26;20014;-74
2024/04/11 06:22:55;;;;;;;12.55;7.25;;;384.90;2329.60;;;;;;5420215;26;20031;-74
2024/04/11 06:25:25;;;;;;;13.38;7.45;;;409.70;2355.20;;;;;;5420070;26;19999;-74
2024/04/11 06:27:52;;;;;;;12.93;7.45;;;409.80;2355.20;;;;;;5419965;26;20007;-72
2024/04/11 06:30:19;;;;;;;16.55;7.18;;;409.90;2355.20;;;;;;5420086;26;20075;-76
2024/04/11 06:32:49;;;;;;;13.90;6.95;;;409.90;2355.20;;;;;;5420304;26;20441;-74
2024/04/11 06:35:15;;;;;;;12.07;7.15;;;410.50;2355.20;;;;;;5418042;26;20439;-74
2024/04/11 06:37:44;;;;;;;16.95;7.90;;;410.40;2355.20;;;;;;5412343;26;20050;-74
2024/04/11 06:40:13;;;;;;;13.77;7.50;;;435.20;2355.20;;;;;;5411071;26;20033;-74
2024/04/11 06:42:46;;;;;;;16.30;8.18;;;435.20;2355.20;;;;;;5419840;26;20028;-76
2024/04/11 06:45:23;;;;;;;16.38;8.77;;;435.40;2355.20;;;;;;5419938;26;20015;-73
2024/04/11 06:47:55;;;;;;;16.58;8.77;;;435.50;2355.20;;;;;;5419785;26;20011;-74
2024/04/11 06:50:21;;;;;;;11.30;8.45;;;435.70;2355.20;;;;;;5419539;26;20004;-73
2024/04/11 06:52:48;;;;;;;13.50;8.68;;;435.80;2355.20;;;;;;5420030;26;20450;-75
2024/04/11 06:55:14;;;;;;;13.57;8.73;;;435.90;2355.20;;;;;;5419909;26;20328;-74
2024/04/11 06:57:44;;;;;;;13.88;7.50;;;436.00;2355.20;;;;;;5419775;26;20003;-75
2024/04/11 07:00:26;;;;;;;13.52;8.77;;;460.80;2380.80;;;;;;5419593;26;20027;-75
2024/04/11 07:02:55;;;;;;;22.17;8.60;;;461.00;2380.80;;;;;;5419734;26;20072;-75
2024/04/11 07:05:25;;;;;;;17.88;9.93;;;461.10;2380.80;;;;;;5419764;26;19991;-74
2024/04/11 07:07:59;;;;;;;26.05;9.55;;;461.00;2380.80;;;;;;5419764;26;20004;-75
2024/04/11 07:10:25;;;;;;;14.73;9.88;;;461.40;2380.80;;;;;;5419782;26;20007;-75
2024/04/11 07:12:52;;;;;;;16.20;9.18;;;461.50;2380.80;;;;;;5419556;26;20035;-75
2024/04/11 07:15:28;;;;;;;17.10;8.70;;;461.70;2380.80;;;;;;5418726;26;20431;-74
2024/04/11 07:17:57;;;;;;;;;;;486.50;2380.80;;;;;;5418432;26;19996;-73
2024/04/11 07:20:30;;;;;;;13.30;8.45;;;486.70;2380.80;;;;;;5418199;26;19925;-74
2024/04/11 07:23:04;;;;;;;12.77;8.02;;;486.90;2380.80;;;;;;5419542;26;20075;-74
2024/04/11 07:25:32;;;;;;;18.10;9.35;;;487.20;2380.80;;;;;;5419257;26;19996;-74
2024/04/11 07:28:00;;;;;;;17.65;9.30;;;512.10;2380.80;;;;;;5419691;26;20014;-75
2024/04/11 07:30:29;;;;;;;14.50;8.38;;;512.10;2380.80;;;;;;5419503;26;20006;-75
2024/04/11 07:32:56;;;;;;;14.18;8.32;;;512.10;2380.80;;;;;;5419312;26;20011;-74
2024/04/11 07:35:26;;;;;;;18.35;8.57;;;512.00;2380.80;;;;;;5419149;26;19995;-73
2024/04/11 07:37:57;;;;;;;13.43;8.88;;;512.30;2355.20;;;;;;5419121;26;19999;-75
2024/04/11 07:40:32;;;;;;;14.68;9.77;;;512.30;2329.60;;;;;;5418940;26;19996;-75
2024/04/11 07:43:09;;;;;;;14.07;9.40;;;512.70;2304.00;;;;;;5419129;26;20010;-74
2024/04/11 07:45:40;;;;;;;17.02;9.65;;;537.60;2304.00;;;;;;5418770;26;19995;-74
2024/04/11 07:48:12;;;;;;;14.77;8.88;;;537.90;2227.20;;;;;;5418774;26;19999;-72
2024/04/11 07:50:38;;;;;;;16.85;8.50;;;538.00;2176.00;;;;;;5418751;26;20006;-74
2024/04/11 07:53:14;;;;;;;17.58;9.95;;;538.20;2150.40;;;;;;5403743;26;20436;-75
2024/04/11 07:55:43;;;;;;;18.13;8.90;;;538.40;2124.80;;;;;;5394638;26;19992;-75
2024/04/11 07:58:18;;;;;;;25.00;10.77;;;538.30;2124.80;;;;;;5392745;26;20000;-75
2024/04/11 08:00:50;;;;;;;14.05;8.70;;;563.20;2099.20;;;;;;5388102;26;19998;-75
2024/04/11 08:03:17;;;;;;;21.38;9.20;;;563.30;2073.60;;;;;;5394437;26;20004;-75
2024/04/11 08:05:45;;;;;;;14.82;8.50;;;563.30;2048.00;;;;;;5388116;26;20012;-74
2024/04/11 08:08:12;;;;;;;15.60;9.93;;;563.20;2048.00;;;;;;5409211;26;20011;-74
2024/04/11 08:10:38;;;;;;;15.30;9.25;;;563.30;2073.60;;;;;;5401131;26;19999;-73
2024/04/11 08:13:04;;;;;;;22.17;10.10;;;538.50;2073.60;;;;;;5395366;26;19992;-76
2024/04/11 08:15:34;;;;;;;19.98;9.60;;;538.50;2073.60;;;;;;5399836;26;20383;-75
2024/04/11 08:18:03;;;;;;;18.40;8.82;;;563.70;2073.60;;;;;;5405020;26;20019;-75
2024/04/11 08:20:29;;;;;;;14.60;8.05;;;563.90;1996.80;;;;;;5410121;26;20036;-75
2024/04/11 08:22:55;;;;;;;15.90;8.98;;;564.00;1996.80;;;;;;5389632;26;20000;-74
2024/04/11 08:25:21;;;;;;;18.40;8.77;;;563.60;2073.60;;;;;;5394784;26;19999;-73
2024/04/11 08:27:48;;;;;;;13.88;9.18;;;564.00;1971.20;;;;;;5396639;26;20415;-76
2024/04/11 08:30:17;;;;;;;18.60;10.10;;;563.90;1996.80;;;;;;5393963;26;19996;-75
2024/04/11 08:32:46;;;;;;;19.98;9.80;;;564.00;1945.60;;;;;;5402741;26;20076;-75
2024/04/11 08:35:18;;;;;;;18.48;9.32;;;588.90;1945.60;;;;;;5390088;26;20003;-75
2024/04/11 08:37:51;;;;;;;13.80;8.10;;;588.90;1945.60;;;;;;5399811;26;19996;-76
2024/04/11 08:40:21;;;;;;;16.52;9.05;;;589.20;1945.60;;;;;;5395279;26;20539;-76
2024/04/11 08:42:50;;;;;;;17.90;8.25;;;589.20;1894.40;;;;;;5402531;26;20438;-75
2024/04/11 08:45:17;;;;;;;20.60;9.95;;;589.20;1894.40;;;;;;5405351;26;20003;-75
2024/04/11 08:47:46;;;;;;;12.93;9.50;;;589.30;1868.80;;;;;;5394343;26;20447;-75
2024/04/11 08:50:12;;;;;;;15.32;9.38;;;588.90;1945.60;;;;;;5393606;26;19992;-74
2024/04/11 08:52:42;;;;;;;13.25;8.07;;;589.30;1894.40;;;;;;5395689;26;20000;-75
2024/04/11 08:55:11;;;;;;;13.07;9.15;;;589.70;1843.20;;;;;;5398377;26;20007;-75
2024/04/11 08:57:37;;;;;;;15.70;10.77;;;589.30;1894.40;;;;;;5389979;26;20000;-73
2024/04/11 09:00:09;;;;;;;17.33;9.48;;;589.30;1894.40;;;;;;5400343;26;20032;-75
2024/04/11 09:02:37;;;;;;;16.40;9.48;;;589.20;1868.80;;;;;;5403487;26;20007;-75
2024/04/11 09:05:05;;;;;;;18.05;9.65;;;614.40;1843.20;;;;;;5395149;26;20011;-73
2024/04/11 09:07:32;;;;;;;14.45;8.68;;;589.10;1894.40;;;;;;5400779;26;20032;-74
2024/04/11 09:10:04;;;;;;;13.68;9.30;;;589.40;1868.80;;;;;;5395528;26;20019;-74
2024/04/11 09:12:31;;;;;;;17.60;9.38;;;589.40;1868.80;;;;;;5391423;26;20010;-74
2024/04/11 09:14:56;;;;;;;14.73;9.65;;;589.50;1868.80;;;;;;5404693;26;20014;-75
2024/04/11 09:17:22;;;;;;;14.93;8.65;;;588.80;1920.00;;;;;;5393376;26;20345;-74
2024/04/11 09:19:49;;;;;;;15.65;9.65;;;588.90;1920.00;;;;;;5388519;26;20459;-75
2024/04/11 09:22:16;;;;;;;15.60;10.20;;;589.30;1868.80;;;;;;5390220;26;20073;-73
2024/04/11 09:24:46;;;;;;;13.25;8.55;;;589.20;1920.00;;;;;;5394275;26;20032;-73
2024/04/11 09:27:16;;;;;;;15.40;9.35;;;589.30;1894.40;;;;;;5403182;26;19996;-74
2024/04/11 09:29:43;;;;;;;14.55;9.38;;;589.50;1868.80;;;;;;5411765;26;22411;-74
2024/04/11 09:32:13;;;;;;;15.85;10.77;;;614.70;1792.00;;;;;;5403662;26;19996;-74
2024/04/11 09:34:40;;;;;;;14.73;11.00;;;614.40;1817.60;;;;;;5403613;26;20015;-73
2024/04/11 09:37:15;;;;;;;19.90;11.90;;;614.70;1843.20;;;;;;5411309;26;19996;-74
2024/04/11 09:39:49;;;;;;;21.63;9.52;;;589.40;1868.80;;;;;;5401709;26;19995;-74
2024/04/11 09:42:18;;;;;;;13.93;8.88;;;588.90;1920.00;;;;;;5407377;26;20008;-74
2024/04/11 09:44:50;;;;;;;15.70;9.30;;;589.50;1894.40;;;;;;5404200;26;19992;-75
2024/04/11 09:47:24;;;;;;;23.25;9.13;;;614.40;1843.20;;;;;;5401781;26;20010;-74
2024/04/11 09:50:04;;;;;;;15.10;9.02;;;614.80;1817.60;;;;;;5386662;26;20130;-75
2024/04/11 09:52:34;;;;;;;14.32;9.43;;;614.60;1843.20;;;;;;5392398;26;20423;-73
2024/04/11 09:55:07;;;;;;;13.27;8.80;;;589.60;1843.20;;;;;;5392246;26;20000;-73
2024/04/11 09:57:36;;;;;;;15.40;9.55;;;614.40;1843.20;;;;;;5393877;26;20083;-74
2024/04/11 10:00:09;;;;;;;22.15;9.57;;;615.00;1766.40;;;;;;5406642;26;20148;-74
2024/04/11 10:02:37;;;;;;;20.10;9.15;;;614.70;1843.20;;;;;;5408822;26;20010;-75
2024/04/11 10:05:05;;;;;;;13.25;8.82;;;614.40;1868.80;;;;;;5404685;26;20011;-75
2024/04/11 10:07:41;;;;;;;13.27;9.20;;;;;;;;;;5394753;26;20015;-75
2024/04/11 10:10:18;;;;;;;;;;;615.30;1740.80;;;;;;5393436;26;20438;-74
2024/04/11 10:12:49;;;;;;;15.88;9.05;;;614.80;1792.00;;;;;;5395159;26;20357;-75
2024/04/11 10:15:18;;;;;;;14.90;8.43;;;614.70;1817.60;;;;;;5385720;26;20341;-75
2024/04/11 10:18:02;;;;;;;12.10;8.30;;;614.90;1817.60;;;;;;5391182;26;20000;-73
2024/04/11 10:20:38;;;;;;;21.75;8.82;;;615.00;1792.00;;;;;;5391426;26;19997;-76
2024/04/11 10:23:04;;;;;;;13.70;8.77;;;614.90;1766.40;;;;;;5395729;26;19996;-74
2024/04/11 10:25:38;;;;;;;22.38;8.60;;;615.30;1740.80;;;;;;5392824;26;20000;-75
2024/04/11 10:28:18;;;;;;;15.98;9.07;;;615.30;1740.80;;;;;;5394951;26;20000;-74
2024/04/11 10:30:50;;;;;;;18.05;9.32;;;640.10;1715.20;;;;;;5395783;26;20091;-73
2024/04/11 10:33:29;;;;;;;10.88;8.40;;;640.40;1715.20;;;;;;5405745;26;20000;-76
2024/04/11 10:35:56;;;;;;;14.20;8.13;;;640.10;1740.80;;;;;;5401837;26;20385;-73
2024/04/11 10:38:27;;;;;;;16.77;8.38;;;615.20;1792.00;;;;;;5401065;26;20040;-76
2024/04/11 10:40:56;;;;;;;10.10;8.10;;;640.60;1689.60;;;;;;5404232;26;20000;-75
2024/04/11 10:43:27;;;;;;;16.13;7.72;;;665.90;1689.60;;;;;;5387712;26;19996;-75
2024/04/11 10:45:56;;;;;;;18.08;8.95;;;640.60;1664.00;;;;;;5383233;26;20459;-75
2024/04/11 10:48:24;;;;;;;17.00;7.97;;;665.90;1689.60;;;;;;5390732;26;20066;-75
2024/04/11 10:50:50;;;;;;;13.25;8.20;;;665.70;1715.20;;;;;;5404104;26;20015;-76
2024/04/11 10:53:24;;;;;;;17.33;8.70;;;640.60;1689.60;;;;;;5397382;26;19999;-75
2024/04/11 10:55:55;;;;;;;14.07;7.32;;;665.70;1664.00;;;;;;5396193;26;19996;-76
2024/04/11 10:58:28;;;;;;;17.85;7.43;;;640.90;1664.00;;;;;;5390321;26;20288;-75
2024/04/11 11:06:16;;;;;;;11.50;7.97;;;666.00;1638.40;;;;;;5392624;26;19996;-75
2024/04/11 11:08:45;;;;;;;10.77;7.63;;;666.20;1638.40;;;;;;5392102;26;20012;-75
2024/04/11 11:11:18;;;;;;;13.05;7.50;;;666.50;1612.80;;;;;;5394949;26;20309;-75
2024/04/11 11:13:47;;;;;;;15.25;7.13;;;691.20;1587.20;;;;;;5403709;26;19996;-74
2024/04/11 11:16:21;;;;;;;12.35;7.50;;;666.30;1612.80;;;;;;5393916;26;20074;-74
2024/04/11 11:18:47;;;;;;;10.05;6.60;;;666.40;1612.80;;;;;;5384799;26;20074;-75
2024/04/11 11:21:16;;;;;;;14.15;6.95;;;691.70;1587.20;;;;;;5389948;26;19996;-75
2024/04/11 11:23:45;;;;;;;18.42;6.60;;;691.60;1561.60;;;;;;5396617;26;20007;-74
2024/04/11 11:26:13;;;;;;;14.02;8.20;;;691.60;1638.40;;;;;;5395117;26;20000;-75
2024/04/11 11:28:38;;;;;;;14.40;7.10;;;691.70;1536.00;;;;;;5395980;26;20333;-76
2024/04/11 11:31:04;;;;;;;16.52;7.55;;;691.70;1561.60;;;;;;5386808;26;20001;-75
2024/04/11 11:33:31;;;;;;;12.27;7.32;;;691.80;1587.20;;;;;;5408577;26;20000;-75
2024/04/11 11:35:56;;;;;;;12.50;7.15;;;691.90;1510.40;;;;;;5396257;26;20041;-75
2024/04/11 11:38:22;;;;;;;12.98;6.78;;;692.10;1510.40;;;;;;5396222;26;20004;-75
2024/04/11 11:40:54;;;;;;;14.10;7.13;;;716.90;1561.60;;;;;;5402419;26;20352;-74
2024/04/11 11:43:20;;;;;;;9.10;6.55;;;716.90;1536.00;;;;;;5412010;26;20433;-75
2024/04/11 11:48:31;;;;;;;10.50;6.85;;;716.80;1536.00;;;;;;5404967;26;20370;-74
2024/04/11 11:51:05;;;;;;;16.58;7.28;;;691.80;1536.00;;;;;;5402994;26;20024;-75
2024/04/11 11:53:32;;;;;;;11.77;7.30;;;692.00;1510.40;;;;;;5400299;26;20004;-75
2024/04/11 11:56:12;;;;;;;12.35;6.60;;;691.80;1536.00;;;;;;5393757;26;20000;-75
2024/04/11 11:58:43;;;;;;;14.60;7.03;;;691.70;1510.40;;;;;;5394579;26;19996;-75
2024/04/11 12:01:28;;;;;;;13.77;7.80;;;691.80;1561.60;;;;;;5395099;26;20024;-74
2024/04/11 12:03:57;;;;;;;11.73;6.57;;;691.90;1510.40;;;;;;5399609;26;20325;-76
2024/04/11 12:06:23;;;;;;;12.45;7.75;;;692.10;1536.00;;;;;;5391377;26;19999;-76
2024/04/11 12:08:49;;;;;;;18.90;8.13;;;716.90;1510.40;;;;;;5391473;26;19997;-74
2024/04/11 12:11:15;;;;;;;13.77;6.72;;;717.10;1510.40;;;;;;5399649;26;20000;-77
2024/04/11 12:13:51;;;;;;;10.80;6.03;;;717.20;1484.80;;;;;;5410631;26;20012;-74
2024/04/11 12:16:17;;;;;;;;;;;717.20;1510.40;;;;;;5395348;26;19996;-75
2024/04/11 12:18:43;;;;;;;8.02;5.95;;;717.30;1536.00;;;;;;5407946;26;20264;-74
2024/04/11 12:21:25;;;;;;;12.63;7.05;;;717.40;1510.40;;;;;;5402950;26;20009;-75
2024/04/11 12:23:52;;;;;;;13.43;6.57;;;717.10;1536.00;;;;;;5401736;26;20018;-74
2024/04/11 12:26:18;;;;;;;11.27;6.35;;;716.90;1484.80;;;;;;5394555;26;19992;-75
2024/04/11 12:28:45;;;;;;;14.95;6.47;;;717.10;1510.40;;;;;;5401038;26;20007;-74